createdAt,value
2023-03-25T00:02:23.656Z,0.90
2023-03-25T00:04:54.319Z,1.02
2023-03-25T00:07:23.336Z,1.10
2023-03-25T00:09:51.656Z,0.80
2023-03-25T00:12:19.968Z,0.70
2023-03-25T00:14:54.909Z,0.95
2023-03-25T00:17:24.032Z,0.80
2023-03-25T00:19:53.514Z,0.85
2023-03-25T00:22:22.107Z,0.95
2023-03-25T00:24:50.898Z,1.10
2023-03-25T00:27:19.860Z,1.00
2023-03-25T00:29:48.067Z,0.90
2023-03-25T00:32:17.228Z,0.90
2023-03-25T00:34:47.276Z,1.25
2023-03-25T00:37:18.348Z,1.10
2023-03-25T00:39:46.870Z,1.33
2023-03-25T00:42:17.248Z,1.13
2023-03-25T00:44:45.483Z,0.80
2023-03-25T00:47:18.391Z,1.17
2023-03-25T00:49:46.559Z,1.10
2023-03-25T00:52:16.054Z,1.10
2023-03-25T00:54:45.860Z,1.33
2023-03-25T00:57:14.081Z,1.23
2023-03-25T00:59:42.177Z,1.33
2023-03-25T01:02:10.407Z,1.08
2023-03-25T01:04:41.446Z,1.05
2023-03-25T01:07:10.678Z,1.00
2023-03-25T01:09:41.497Z,1.00
2023-03-25T01:12:09.681Z,1.08
2023-03-25T01:14:37.767Z,1.23
2023-03-25T01:17:06.016Z,1.15
2023-03-25T01:19:34.116Z,1.40
2023-03-25T01:22:02.264Z,1.33
2023-03-25T01:24:30.427Z,1.77
2023-03-25T01:26:59.904Z,1.50
2023-03-25T01:29:28.013Z,1.40
2023-03-25T01:31:56.689Z,1.85
2023-03-25T01:34:24.822Z,1.45
2023-03-25T01:36:55.566Z,2.03
2023-03-25T01:39:24.057Z,1.30
2023-03-25T01:41:55.170Z,1.63
2023-03-25T01:45:00.582Z,1.45
2023-03-25T01:47:30.448Z,1.63
2023-03-25T01:49:58.589Z,1.63
2023-03-25T01:52:29.856Z,1.20
2023-03-25T01:54:59.026Z,1.50
2023-03-25T01:57:27.363Z,1.80
2023-03-25T01:59:55.846Z,1.13
2023-03-25T02:02:25.589Z,1.75
2023-03-25T02:05:02.488Z,1.35
2023-03-25T02:07:32.759Z,2.55
2023-03-25T02:10:03.207Z,2.67
2023-03-25T02:12:31.513Z,1.48
2023-03-25T02:15:01.407Z,2.13
2023-03-25T02:17:36.344Z,1.65
2023-03-25T02:20:31.672Z,1.80
2023-03-25T02:23:34.723Z,1.40
2023-03-25T02:26:27.520Z,1.77
2023-03-25T02:28:57.323Z,1.75
2023-03-25T02:31:38.546Z,1.40
2023-03-25T02:34:19.259Z,1.90
2023-03-25T02:37:09.290Z,1.30
2023-03-25T02:39:42.429Z,2.10
2023-03-25T02:44:44.353Z,1.50
2023-03-25T02:47:17.397Z,1.88
2023-03-25T02:52:17.702Z,2.35
2023-03-25T02:54:48.933Z,1.30
2023-03-25T02:57:20.134Z,1.60
2023-03-25T02:59:48.933Z,1.50
2023-03-25T03:02:17.504Z,1.67
2023-03-25T03:04:50.500Z,1.40
2023-03-25T03:07:24.380Z,1.40
2023-03-25T03:10:01.331Z,1.70
2023-03-25T03:12:42.242Z,1.40
2023-03-25T03:15:24.110Z,1.65
2023-03-25T03:18:03.345Z,1.85
2023-03-25T03:20:36.607Z,1.77
2023-03-25T03:23:07.462Z,1.63
2023-03-25T03:25:38.371Z,1.00
2023-03-25T03:28:11.263Z,1.40
2023-03-25T03:30:44.109Z,1.58
2023-03-25T03:33:18.027Z,1.17
2023-03-25T03:35:51.763Z,1.58
2023-03-25T03:38:22.500Z,1.35
2023-03-25T03:40:54.497Z,1.77
2023-03-25T03:43:26.769Z,1.25
2023-03-25T03:45:57.942Z,1.25
2023-03-25T03:48:29.712Z,1.33
2023-03-25T03:51:01.875Z,1.38
2023-03-25T03:53:33.216Z,1.10
2023-03-25T03:56:04.940Z,1.00
2023-03-25T03:58:36.334Z,1.77
2023-03-25T04:01:09.883Z,1.80
2023-03-25T04:03:41.778Z,1.48
2023-03-25T04:06:16.128Z,1.70
2023-03-25T04:08:51.834Z,1.30
2023-03-25T04:11:24.425Z,1.20
2023-03-25T04:13:53.879Z,1.35
2023-03-25T04:16:22.738Z,1.52
2023-03-25T04:18:53.474Z,1.30
2023-03-25T04:21:21.613Z,1.65
2023-03-25T04:23:51.731Z,1.88
2023-03-25T04:26:21.778Z,1.70
2023-03-25T04:28:49.856Z,1.90
2023-03-25T04:31:18.580Z,1.90
2023-03-25T04:33:48.640Z,2.38
2023-03-25T04:36:17.032Z,2.08
2023-03-25T04:38:46.227Z,2.13
2023-03-25T04:41:15.701Z,1.80
2023-03-25T04:43:45.530Z,2.28
2023-03-25T04:46:15.824Z,1.98
2023-03-25T04:48:45.104Z,2.45
2023-03-25T04:51:13.857Z,2.20
2023-03-25T04:53:42.958Z,2.33
2023-03-25T04:56:16.270Z,2.33
2023-03-25T04:58:46.542Z,1.63
2023-03-25T05:01:22.257Z,2.00
2023-03-25T05:03:50.934Z,1.75
2023-03-25T05:06:19.158Z,2.65
2023-03-25T05:08:47.221Z,2.13
2023-03-25T05:11:15.354Z,2.53
2023-03-25T05:13:43.413Z,2.67
2023-03-25T05:16:12.914Z,1.98
2023-03-25T05:18:40.991Z,2.15
2023-03-25T05:21:09.268Z,2.17
2023-03-25T05:23:37.339Z,2.40
2023-03-25T05:26:06.242Z,1.92
2023-03-25T05:28:35.856Z,2.05
2023-03-25T05:31:08.534Z,2.35
2023-03-25T05:33:42.860Z,2.92
2023-03-25T05:36:12.046Z,2.28
2023-03-25T05:38:41.672Z,1.92
2023-03-25T05:41:10.822Z,2.08
2023-03-25T05:43:39.012Z,2.50
2023-03-25T05:46:07.780Z,2.40
2023-03-25T05:48:37.344Z,1.88
2023-03-25T05:51:09.837Z,1.80
2023-03-25T05:53:37.939Z,1.90
2023-03-25T05:56:06.863Z,1.85
2023-03-25T05:58:35.304Z,1.90
2023-03-25T06:01:04.250Z,1.92
2023-03-25T06:03:34.535Z,1.63
2023-03-25T06:06:06.209Z,1.80
2023-03-25T06:08:35.304Z,1.25
2023-03-25T06:11:04.273Z,1.80
2023-03-25T06:13:34.006Z,1.52
2023-03-25T06:16:03.305Z,1.55
2023-03-25T06:18:31.432Z,1.45
2023-03-25T06:20:59.599Z,1.75
2023-03-25T06:23:29.139Z,1.98
2023-03-25T06:25:58.654Z,2.05
2023-03-25T06:28:26.759Z,1.50
2023-03-25T06:30:54.833Z,1.70
2023-03-25T06:33:43.432Z,1.65
2023-03-25T06:36:12.144Z,1.83
2023-03-25T06:38:42.233Z,1.48
2023-03-25T06:41:10.339Z,1.73
2023-03-25T06:43:38.454Z,1.85
2023-03-25T06:46:07.210Z,1.67
2023-03-25T06:48:35.416Z,1.63
2023-03-25T06:51:03.889Z,1.00
2023-03-25T06:53:32.796Z,1.63
2023-03-25T06:56:02.301Z,1.40
2023-03-25T06:58:35.222Z,2.05
2023-03-25T07:01:07.241Z,1.30
2023-03-25T07:03:37.297Z,1.02
2023-03-25T07:06:06.489Z,1.30
2023-03-25T07:08:34.969Z,1.90
2023-03-25T07:11:06.168Z,2.08
2023-03-25T07:13:34.299Z,1.60
2023-03-25T07:16:03.133Z,1.73
2023-03-25T07:18:31.448Z,1.60
2023-03-25T07:20:59.754Z,1.42
2023-03-25T07:23:27.960Z,1.50
2023-03-25T07:25:56.960Z,2.10
2023-03-25T07:28:26.452Z,1.85
2023-03-25T07:30:54.544Z,1.60
2023-03-25T07:33:22.677Z,1.70
2023-03-25T07:35:50.986Z,2.20
2023-03-25T07:38:19.618Z,1.02
2023-03-25T07:40:49.906Z,1.20
2023-03-25T07:43:18.552Z,1.23
2023-03-25T07:45:48.032Z,1.25
2023-03-25T07:48:16.838Z,2.08
2023-03-25T07:50:45.740Z,1.00
2023-03-25T07:53:13.814Z,1.13
2023-03-25T07:55:41.920Z,1.58
2023-03-25T07:58:10.022Z,1.23
2023-03-25T08:00:38.126Z,1.00
2023-03-25T08:03:07.674Z,1.73
2023-03-25T08:05:36.072Z,1.10
2023-03-25T08:08:07.185Z,1.00
2023-03-25T08:10:35.932Z,1.10
2023-03-25T08:13:04.024Z,1.83
2023-03-25T08:15:32.102Z,1.27
2023-03-25T08:18:00.854Z,1.85
2023-03-25T08:20:30.637Z,1.38
2023-03-25T08:22:58.869Z,1.55
2023-03-25T08:25:28.058Z,1.33
2023-03-25T08:27:56.449Z,1.38
2023-03-25T08:30:24.673Z,1.60
2023-03-25T08:32:54.812Z,1.63
2023-03-25T08:35:24.967Z,1.83
2023-03-25T08:37:54.444Z,2.55
2023-03-25T08:40:22.768Z,2.17
2023-03-25T08:42:50.918Z,2.10
2023-03-25T08:45:19.146Z,1.65
2023-03-25T08:47:47.230Z,2.33
2023-03-25T08:50:15.922Z,2.03
2023-03-25T08:52:44.287Z,2.00
2023-03-25T08:55:17.766Z,2.15
2023-03-25T08:57:45.872Z,2.50
2023-03-25T09:00:15.007Z,1.95
2023-03-25T09:02:43.537Z,2.80
2023-03-25T09:05:12.852Z,2.80
2023-03-25T09:07:41.094Z,2.47
2023-03-25T09:10:12.518Z,2.83
2023-03-25T09:12:42.085Z,2.28
2023-03-25T09:15:11.704Z,3.05
2023-03-25T09:17:40.993Z,3.25
2023-03-25T09:20:11.587Z,3.00
2023-03-25T09:22:40.443Z,3.20
2023-03-25T09:25:09.669Z,2.88
2023-03-25T09:27:37.944Z,2.53
2023-03-25T09:30:09.118Z,2.97
2023-03-25T09:32:37.279Z,2.72
2023-03-25T09:35:05.798Z,2.88
2023-03-25T09:37:33.984Z,1.85
2023-03-25T09:40:02.031Z,3.58
2023-03-25T09:42:36.857Z,2.67
2023-03-25T09:45:16.004Z,2.90
2023-03-25T09:47:47.674Z,3.67
2023-03-25T09:50:16.885Z,2.60
2023-03-25T09:52:51.823Z,3.55
2023-03-25T09:55:25.474Z,2.88
2023-03-25T09:57:57.806Z,2.78
2023-03-25T10:00:27.712Z,3.63
2023-03-25T10:03:04.292Z,2.60
2023-03-25T10:05:46.803Z,2.78
2023-03-25T10:08:20.378Z,3.10
2023-03-25T10:10:54.526Z,3.20
2023-03-25T10:13:27.402Z,3.15
2023-03-25T10:16:00.888Z,2.42
2023-03-25T10:18:44.266Z,3.03
2023-03-25T10:23:44.296Z,2.30
2023-03-25T10:26:16.937Z,2.58
2023-03-25T10:28:50.874Z,2.95
2023-03-25T10:31:23.739Z,3.13
2023-03-25T10:33:56.188Z,2.63
2023-03-25T10:36:30.914Z,3.25
2023-03-25T10:39:01.962Z,3.00
2023-03-25T10:41:32.433Z,3.30
2023-03-25T10:44:00.617Z,2.85
2023-03-25T10:46:37.325Z,2.75
2023-03-25T10:49:05.444Z,2.60
2023-03-25T10:51:35.347Z,2.63
2023-03-25T10:54:03.442Z,2.33
2023-03-25T10:56:33.172Z,3.83
2023-03-25T10:59:07.112Z,4.18
2023-03-25T11:01:40.106Z,3.42
2023-03-25T11:06:40.372Z,3.58
2023-03-25T11:09:18.484Z,3.00
2023-03-25T11:11:48.432Z,3.15
2023-03-25T11:14:16.690Z,3.92
2023-03-25T11:16:49.746Z,2.72
2023-03-25T11:21:49.684Z,3.20
2023-03-25T11:24:20.397Z,2.67
2023-03-25T11:26:51.786Z,3.42
2023-03-25T11:29:22.362Z,2.28
2023-03-25T11:32:00.335Z,2.10
2023-03-25T11:34:28.955Z,3.30
2023-03-25T11:37:01.771Z,2.28
2023-03-25T11:39:34.779Z,2.35
2023-03-25T11:44:36.417Z,2.05
2023-03-25T11:47:07.515Z,2.78
2023-03-25T11:49:38.575Z,2.83
2023-03-25T11:52:09.751Z,2.88
2023-03-25T11:54:38.862Z,2.25
2023-03-25T11:57:11.872Z,2.25
2023-03-25T11:59:44.534Z,2.78
2023-03-25T12:02:24.202Z,3.10
2023-03-25T12:04:59.977Z,2.33
2023-03-25T12:07:28.126Z,2.47
2023-03-25T12:09:57.791Z,4.60
2023-03-25T12:12:38.462Z,3.20
2023-03-25T12:15:24.728Z,2.35
2023-03-25T12:18:01.532Z,2.97
2023-03-25T12:20:32.015Z,2.67
2023-03-25T12:23:03.463Z,2.78
2023-03-25T12:25:41.435Z,3.78
2023-03-25T12:28:26.068Z,2.45
2023-03-25T12:31:01.338Z,2.50
2023-03-25T12:33:43.993Z,2.58
2023-03-25T12:36:21.471Z,2.72
2023-03-25T12:38:57.866Z,3.25
2023-03-25T12:41:32.842Z,2.95
2023-03-25T12:44:11.497Z,2.95
2023-03-25T12:46:58.838Z,2.80
2023-03-25T12:49:43.580Z,2.90
2023-03-25T12:52:16.673Z,3.03
2023-03-25T12:57:25.955Z,2.38
2023-03-25T13:00:26.711Z,2.90
2023-03-25T13:03:13.599Z,3.13
2023-03-25T13:05:49.313Z,2.22
2023-03-25T13:08:19.987Z,2.25
2023-03-25T13:10:51.218Z,2.28
2023-03-25T13:13:21.153Z,2.08
2023-03-25T13:15:50.912Z,2.28
2023-03-25T13:18:21.413Z,1.85
2023-03-25T13:20:56.518Z,2.47
2023-03-25T13:23:25.379Z,2.05
2023-03-25T13:25:57.643Z,2.05
2023-03-25T13:28:28.953Z,2.17
2023-03-25T13:30:57.635Z,1.55
2023-03-25T13:33:28.484Z,1.65
2023-03-25T13:36:01.402Z,1.67
2023-03-25T13:38:33.129Z,1.60
2023-03-25T13:41:10.827Z,1.60
2023-03-25T13:43:44.096Z,1.88
2023-03-25T13:46:14.399Z,2.22
2023-03-25T13:48:48.135Z,2.83
2023-03-25T13:51:17.632Z,2.47
2023-03-25T13:53:48.638Z,3.33
2023-03-25T13:56:57.224Z,3.25
2023-03-25T13:59:46.022Z,2.78
2023-03-25T14:02:36.107Z,3.00
2023-03-25T14:05:28.736Z,2.45
2023-03-25T14:08:17.945Z,2.17
2023-03-25T14:10:52.842Z,3.58
2023-03-25T14:13:25.120Z,2.83
2023-03-25T14:15:58.762Z,2.63
2023-03-25T14:18:28.679Z,2.25
2023-03-25T14:20:58.113Z,3.13
2023-03-25T14:23:32.551Z,3.30
2023-03-25T14:26:01.933Z,2.55
2023-03-25T14:28:37.429Z,3.10
2023-03-25T14:31:18.046Z,3.20
2023-03-25T14:34:14.839Z,3.20
2023-03-25T14:37:18.449Z,1.92
2023-03-25T14:39:47.980Z,1.58
2023-03-25T14:42:28.944Z,1.23
2023-03-25T14:45:38.802Z,1.65
2023-03-25T14:48:19.529Z,0.95
2023-03-25T14:51:15.333Z,1.05
2023-03-25T14:53:53.092Z,1.13
2023-03-25T14:56:25.498Z,0.93
2023-03-25T14:58:55.967Z,1.27
2023-03-25T15:01:31.466Z,1.02
2023-03-25T15:04:16.680Z,0.88
2023-03-25T15:06:44.990Z,1.02
2023-03-25T15:09:15.429Z,1.10
2023-03-25T15:11:46.180Z,1.38
2023-03-25T15:14:17.840Z,0.80
2023-03-25T15:17:07.465Z,1.13
2023-03-25T15:20:28.758Z,1.00
2023-03-25T15:23:36.306Z,1.50
2023-03-25T15:26:06.273Z,1.38
2023-03-25T15:28:47.560Z,1.30
2023-03-25T15:31:27.990Z,2.22
2023-03-25T15:34:09.568Z,1.65
2023-03-25T15:36:46.868Z,1.90
2023-03-25T15:39:30.985Z,2.35
2023-03-25T15:42:12.506Z,2.58
2023-03-25T15:45:12.949Z,2.10
2023-03-25T15:48:26.310Z,4.28
2023-03-25T15:51:02.512Z,3.78
2023-03-25T15:53:47.238Z,2.50
2023-03-25T15:56:17.234Z,3.58
2023-03-25T15:58:51.099Z,3.05
2023-03-25T16:01:24.911Z,3.15
2023-03-25T16:04:00.130Z,2.30
2023-03-25T16:06:28.983Z,3.67
2023-03-25T16:08:59.450Z,3.67
2023-03-25T16:11:29.242Z,3.17
2023-03-25T16:14:09.420Z,3.28
2023-03-25T16:16:42.150Z,2.33
2023-03-25T16:19:13.522Z,4.03
2023-03-25T16:21:41.801Z,2.78
2023-03-25T16:24:12.529Z,2.53
2023-03-25T16:26:44.364Z,2.92
2023-03-25T16:29:18.611Z,1.60
2023-03-25T16:31:56.521Z,1.60
2023-03-25T16:34:25.119Z,1.70
2023-03-25T16:36:54.310Z,2.10
2023-03-25T16:39:24.408Z,1.80
2023-03-25T16:41:54.128Z,1.30
2023-03-25T16:44:25.068Z,1.45
2023-03-25T16:46:54.969Z,1.65
2023-03-25T16:49:27.697Z,1.77
2023-03-25T16:51:56.608Z,1.80
2023-03-25T16:54:36.180Z,1.60
2023-03-25T16:57:04.490Z,2.10
2023-03-25T16:59:34.950Z,1.42
2023-03-25T17:02:05.703Z,1.60
2023-03-25T17:04:41.853Z,1.80
2023-03-25T17:07:13.417Z,2.40
2023-03-25T17:09:43.176Z,2.45
2023-03-25T17:12:12.876Z,1.38
2023-03-25T17:14:43.380Z,2.72
2023-03-25T17:17:33.639Z,3.85
2023-03-25T17:20:06.777Z,2.05
2023-03-25T17:25:25.855Z,3.00
2023-03-25T17:27:56.949Z,1.88
2023-03-25T17:30:40.528Z,1.60
2023-03-25T17:33:15.628Z,1.75
2023-03-25T17:35:45.400Z,2.30
2023-03-25T17:38:19.678Z,2.25
2023-03-25T17:40:47.771Z,2.88
2023-03-25T17:43:20.660Z,2.65
2023-03-25T17:48:18.837Z,3.03
2023-03-25T17:50:53.323Z,2.50
2023-03-25T17:53:21.867Z,2.63
2023-03-25T17:55:52.196Z,2.50
2023-03-25T17:58:21.871Z,3.22
2023-03-25T18:00:50.974Z,2.65
2023-03-25T18:03:23.939Z,2.03
2023-03-25T18:05:54.097Z,3.45
2023-03-25T18:08:25.611Z,3.03
2023-03-25T18:10:54.687Z,2.47
2023-03-25T18:13:23.966Z,1.92
2023-03-25T18:15:52.655Z,3.90
2023-03-25T18:18:24.634Z,2.13
2023-03-25T18:20:53.602Z,2.50
2023-03-25T18:23:22.081Z,2.25
2023-03-25T18:25:50.224Z,4.85
2023-03-25T18:28:18.913Z,2.75
2023-03-25T18:30:49.314Z,2.42
2023-03-25T18:33:18.321Z,2.42
2023-03-25T18:35:48.219Z,2.22
2023-03-25T18:38:20.116Z,2.08
2023-03-25T18:40:49.018Z,2.10
2023-03-25T18:43:17.503Z,2.88
2023-03-25T18:45:46.180Z,2.35
2023-03-25T18:48:15.090Z,2.63
2023-03-25T18:50:48.454Z,2.70
2023-03-25T18:53:17.994Z,2.25
2023-03-25T18:55:47.664Z,2.42
2023-03-25T18:58:18.733Z,2.30
2023-03-25T19:00:48.331Z,2.45
2023-03-25T19:03:16.825Z,3.30
2023-03-25T19:05:45.854Z,2.28
2023-03-25T19:08:19.049Z,2.58
2023-03-25T19:10:47.720Z,2.65
2023-03-25T19:13:16.412Z,2.90
2023-03-25T19:15:44.538Z,2.17
2023-03-25T19:18:16.820Z,2.60
2023-03-25T19:20:46.384Z,3.03
2023-03-25T19:23:16.424Z,3.72
2023-03-25T19:25:46.575Z,2.95
2023-03-25T19:28:16.819Z,2.17
2023-03-25T19:30:46.201Z,2.63
2023-03-25T19:33:15.496Z,3.08
2023-03-25T19:35:44.499Z,2.65
2023-03-25T19:38:12.773Z,3.38
2023-03-25T19:40:40.853Z,2.70
2023-03-25T19:43:13.393Z,2.80
2023-03-25T19:45:41.617Z,2.25
2023-03-25T19:48:10.820Z,1.77
2023-03-25T19:50:40.857Z,2.60
2023-03-25T19:53:09.196Z,2.47
2023-03-25T19:55:37.283Z,3.78
2023-03-25T19:58:07.418Z,4.10
2023-03-25T20:00:36.983Z,3.17
2023-03-25T20:03:05.236Z,2.53
2023-03-25T20:05:35.695Z,4.13
2023-03-25T20:08:04.660Z,3.00
2023-03-25T20:10:33.687Z,3.33
2023-03-25T20:13:01.761Z,2.72
2023-03-25T20:15:29.889Z,2.83
2023-03-25T20:17:59.411Z,3.25
2023-03-25T20:20:27.900Z,3.17
2023-03-25T20:22:56.647Z,3.33
2023-03-25T20:25:24.829Z,3.45
2023-03-25T20:27:52.960Z,3.65
2023-03-25T20:30:21.415Z,3.35
2023-03-25T20:32:49.797Z,1.92
2023-03-25T20:35:19.958Z,1.85
2023-03-25T20:37:51.950Z,2.20
2023-03-25T20:40:25.378Z,2.33
2023-03-25T20:42:56.436Z,2.25
2023-03-25T20:45:29.311Z,1.90
2023-03-25T20:47:57.611Z,2.45
2023-03-25T20:50:27.307Z,1.92
2023-03-25T20:52:55.660Z,2.33
2023-03-25T20:55:23.790Z,2.30
2023-03-25T20:57:51.889Z,2.63
2023-03-25T21:00:20.032Z,2.20
2023-03-25T21:02:50.265Z,1.80
2023-03-25T21:05:18.490Z,2.40
2023-03-25T21:07:48.367Z,2.55
2023-03-25T21:10:16.866Z,1.75
2023-03-25T21:12:45.170Z,2.92
2023-03-25T21:15:14.546Z,2.10
2023-03-25T21:17:43.167Z,1.70
2023-03-25T21:20:12.720Z,1.40
2023-03-25T21:22:44.370Z,1.70
2023-03-25T21:25:16.900Z,2.25
2023-03-25T21:27:46.763Z,1.88
2023-03-25T21:30:15.495Z,1.85
2023-03-25T21:32:43.734Z,2.25
2023-03-25T21:35:11.980Z,2.20
2023-03-25T21:37:40.451Z,2.47
2023-03-25T21:40:11.531Z,2.22
2023-03-25T21:42:42.165Z,2.58
2023-03-25T21:45:11.975Z,2.50
2023-03-25T21:47:40.274Z,2.13
2023-03-25T21:50:10.710Z,2.92
2023-03-25T21:52:43.112Z,3.00
2023-03-25T21:55:12.621Z,2.55
2023-03-25T21:57:44.841Z,2.17
2023-03-25T22:00:17.046Z,2.00
2023-03-25T22:02:46.491Z,2.05
2023-03-25T22:05:16.442Z,2.22
2023-03-25T22:07:44.702Z,1.75
2023-03-25T22:10:12.884Z,2.20
2023-03-25T22:12:42.395Z,2.58
2023-03-25T22:15:11.860Z,1.50
2023-03-25T22:17:40.048Z,1.95
2023-03-25T22:20:10.180Z,1.35
2023-03-25T22:22:38.340Z,1.30
2023-03-25T22:25:07.855Z,1.30
2023-03-25T22:27:36.325Z,1.40
2023-03-25T22:30:06.513Z,1.02
2023-03-25T22:32:35.772Z,0.90
2023-03-25T22:35:04.002Z,1.00
2023-03-25T22:37:32.256Z,0.70
2023-03-25T22:40:00.584Z,0.77
2023-03-25T22:42:29.687Z,0.88
2023-03-25T22:44:57.834Z,0.75
2023-03-25T22:47:27.365Z,1.45
2023-03-25T22:49:55.436Z,0.80
2023-03-25T22:52:23.512Z,0.57
2023-03-25T22:54:51.617Z,0.60
2023-03-25T22:57:19.769Z,0.88
2023-03-25T22:59:47.846Z,0.55
2023-03-25T23:02:16.722Z,0.40
2023-03-25T23:04:46.877Z,0.50
2023-03-25T23:07:14.989Z,0.70
2023-03-25T23:09:44.162Z,0.70
2023-03-25T23:12:13.902Z,0.60
2023-03-25T23:14:43.921Z,0.70
2023-03-25T23:17:12.096Z,0.47
2023-03-25T23:19:40.453Z,0.50
2023-03-25T23:22:10.022Z,0.77
2023-03-25T23:24:39.141Z,0.50
2023-03-25T23:27:09.426Z,0.75
2023-03-25T23:29:39.089Z,1.08
2023-03-25T23:32:08.591Z,0.80
2023-03-25T23:34:38.362Z,0.68
2023-03-25T23:37:10.263Z,0.80
2023-03-25T23:39:40.376Z,0.70
2023-03-25T23:42:09.088Z,0.80
2023-03-25T23:44:37.724Z,0.90
2023-03-25T23:47:06.212Z,0.75
2023-03-25T23:49:38.492Z,0.82
2023-03-25T23:52:11.458Z,0.70
2023-03-25T23:57:09.577Z,0.50
2023-03-25T23:59:37.875Z,0.50
